Time;durP1;ratioP1;P1;durP2;ratioP2;P2;SDS_P1;SDS_P2;PMS_P1;PMS_P2;Temp;Humidity;BMP_temperature;BMP_pressure;BME280_temperature;BME280_humidity;BME280_pressure;Samples;Min_cycle;Max_cycle;Signal;HPM_P1;HPM_P2
2024/03/19 00:00:55;;;;;;;0.10;0.10;;;;;;;;;;5095133;28;20027;-67
2024/03/19 00:03:20;;;;;;;0.10;0.10;;;;;;;;;;5098859;28;20020;-67
2024/03/19 00:05:46;;;;;;;0.10;0.10;;;;;;;;;;5114908;28;20027;-67
2024/03/19 00:08:11;;;;;;;1.07;0.47;;;;;;;;;;5114597;28;20256;-67
2024/03/19 00:10:36;;;;;;;0.10;0.10;;;;;;;;;;5114867;28;20414;-67
2024/03/19 00:13:01;;;;;;;0.10;0.10;;;;;;;;;;5114854;28;20019;-67
2024/03/19 00:15:26;;;;;;;1.40;0.40;;;;;;;;;;5112988;28;20278;-67
2024/03/19 00:17:52;;;;;;;0.07;0.07;;;;;;;;;;5114990;28;20552;-67
2024/03/19 00:20:17;;;;;;;0.20;0.20;;;;;;;;;;5114618;28;20111;-67
2024/03/19 00:22:43;;;;;;;1.27;1.17;;;;;;;;;;5114274;28;20039;-67
2024/03/19 00:25:08;;;;;;;0.10;0.10;;;;;;;;;;5112857;28;20027;-67
2024/03/19 00:27:33;;;;;;;0.60;0.43;;;;;;;;;;5114077;28;20376;-67
2024/03/19 00:30:00;;;;;;;0.22;0.22;;;;;;;;;;5114523;28;20019;-67
2024/03/19 00:32:25;;;;;;;0.32;0.32;;;;;;;;;;5114452;28;20365;-67
2024/03/19 00:34:50;;;;;;;0.30;0.30;;;;;;;;;;5097527;28;20035;-67
2024/03/19 00:37:16;;;;;;;0.10;0.10;;;;;;;;;;5094528;28;20020;-67
2024/03/19 00:39:41;;;;;;;0.60;0.60;;;;;;;;;;5094673;28;20019;-67
2024/03/19 00:42:06;;;;;;;0.00;0.00;;;;;;;;;;5094274;28;20500;-67
2024/03/19 00:44:32;;;;;;;0.40;0.40;;;;;;;;;;5095148;28;20160;-67
2024/03/19 00:46:58;;;;;;;0.57;0.32;;;;;;;;;;5094563;28;20016;-67
2024/03/19 00:49:23;;;;;;;0.20;0.20;;;;;;;;;;5094519;28;20020;-67
2024/03/19 00:51:48;;;;;;;0.43;0.43;;;;;;;;;;5094133;28;20035;-67
2024/03/19 00:54:13;;;;;;;0.10;0.10;;;;;;;;;;5094455;28;20028;-67
2024/03/19 00:56:39;;;;;;;0.10;0.10;;;;;;;;;;5094161;28;20573;-67
2024/03/19 00:59:04;;;;;;;1.02;0.65;;;;;;;;;;5094103;28;20344;-67
2024/03/19 01:01:31;;;;;;;0.00;0.00;;;;;;;;;;5095467;28;20050;-64
2024/03/19 01:03:57;;;;;;;0.35;0.35;;;;;;;;;;5094254;28;20020;-64
2024/03/19 01:06:22;;;;;;;0.10;0.10;;;;;;;;;;5099603;28;20057;-64
2024/03/19 01:08:47;;;;;;;0.10;0.10;;;;;;;;;;5113147;28;20032;-64
2024/03/19 01:11:12;;;;;;;0.20;0.20;;;;;;;;;;5113979;28;20258;-64
2024/03/19 01:13:38;;;;;;;0.20;0.20;;;;;;;;;;5113698;28;20019;-64
2024/03/19 01:16:04;;;;;;;0.05;0.05;;;;;;;;;;5103779;28;20102;-64
2024/03/19 01:18:30;;;;;;;0.03;0.03;;;;;;;;;;5094070;28;20412;-64
2024/03/19 01:20:55;;;;;;;0.32;0.20;;;;;;;;;;5094099;28;20042;-64
2024/03/19 01:23:20;;;;;;;0.20;0.20;;;;;;;;;;5093961;28;20027;-64
2024/03/19 01:25:46;;;;;;;0.10;0.10;;;;;;;;;;5093876;28;20269;-64
2024/03/19 01:28:13;;;;;;;0.75;0.45;;;;;;;;;;5109745;28;20255;-64
2024/03/19 01:30:38;;;;;;;0.10;0.10;;;;;;;;;;5113590;28;20037;-64
2024/03/19 01:33:03;;;;;;;0.00;0.00;;;;;;;;;;5114000;28;20094;-64
2024/03/19 01:35:30;;;;;;;0.00;0.00;;;;;;;;;;5114225;28;20029;-64
2024/03/19 01:37:56;;;;;;;5.47;0.90;;;;;;;;;;5113032;28;20459;-64
2024/03/19 01:40:21;;;;;;;0.10;0.10;;;;;;;;;;5113236;28;20031;-64
2024/03/19 01:42:46;;;;;;;0.50;0.47;;;;;;;;;;5112574;28;20449;-64
2024/03/19 01:45:13;;;;;;;0.30;0.30;;;;;;;;;;5112327;28;20276;-64
2024/03/19 01:47:39;;;;;;;0.30;0.30;;;;;;;;;;5094092;28;20028;-64
2024/03/19 01:50:09;;;;;;;0.00;0.00;;;;;;;;;;5093402;28;20077;-64
2024/03/19 01:52:36;;;;;;;0.25;0.25;;;;;;;;;;5093522;28;20499;-64
2024/03/19 01:55:02;;;;;;;0.00;0.00;;;;;;;;;;5094431;28;20023;-64
2024/03/19 01:57:27;;;;;;;0.03;0.03;;;;;;;;;;5093467;28;20070;-64
2024/03/19 01:59:53;;;;;;;0.22;0.22;;;;;;;;;;5093507;28;20464;-64
2024/03/19 02:02:31;;;;;;;0.38;0.25;;;;;;;;;;5093511;28;20032;-64
2024/03/19 02:04:58;;;;;;;0.10;0.10;;;;;;;;;;5094491;28;20077;-64
2024/03/19 02:07:23;;;;;;;0.05;0.05;;;;;;;;;;5096908;28;20012;-64
2024/03/19 02:09:49;;;;;;;0.20;0.20;;;;;;;;;;5112857;28;20072;-64
2024/03/19 02:12:14;;;;;;;0.55;0.32;;;;;;;;;;5111161;28;20064;-65
2024/03/19 02:14:40;;;;;;;0.13;0.13;;;;;;;;;;5093146;28;20099;-64
2024/03/19 02:17:05;;;;;;;0.43;0.43;;;;;;;;;;5093178;28;20104;-64
2024/03/19 02:19:33;;;;;;;0.20;0.20;;;;;;;;;;5093028;28;20307;-64
2024/03/19 02:21:58;;;;;;;0.13;0.13;;;;;;;;;;5094195;28;20264;-64
2024/03/19 02:24:23;;;;;;;0.33;0.33;;;;;;;;;;5092909;28;20058;-64
2024/03/19 02:26:48;;;;;;;0.40;0.40;;;;;;;;;;5096898;28;20019;-64
2024/03/19 02:29:14;;;;;;;0.20;0.20;;;;;;;;;;5112792;28;20024;-64
2024/03/19 02:31:40;;;;;;;0.73;0.73;;;;;;;;;;5112789;28;20263;-64
2024/03/19 02:34:05;;;;;;;0.22;0.22;;;;;;;;;;5112559;28;20491;-64
2024/03/19 02:36:30;;;;;;;0.60;0.60;;;;;;;;;;5112982;28;20019;-64
2024/03/19 02:38:56;;;;;;;0.10;0.10;;;;;;;;;;5104815;28;20016;-64
2024/03/19 02:41:21;;;;;;;0.30;0.30;;;;;;;;;;5093073;28;20532;-64
2024/03/19 02:43:46;;;;;;;0.20;0.20;;;;;;;;;;5092519;28;20050;-64
2024/03/19 02:46:11;;;;;;;0.20;0.20;;;;;;;;;;5093014;28;20255;-65
2024/03/19 02:48:37;;;;;;;0.00;0.00;;;;;;;;;;5094223;28;20277;-64
2024/03/19 02:51:02;;;;;;;0.13;0.13;;;;;;;;;;5092751;28;20295;-64
2024/03/19 02:53:27;;;;;;;0.10;0.10;;;;;;;;;;5092746;28;20292;-64
2024/03/19 02:55:53;;;;;;;0.10;0.10;;;;;;;;;;5092976;28;20490;-64
2024/03/19 02:58:18;;;;;;;0.08;0.08;;;;;;;;;;5096375;28;20383;-64
2024/03/19 03:00:44;;;;;;;0.23;0.23;;;;;;;;;;5096410;28;20024;-64
2024/03/19 03:03:09;;;;;;;0.10;0.10;;;;;;;;;;5096517;28;20271;-64
2024/03/19 03:05:35;;;;;;;0.10;0.10;;;;;;;;;;5111212;28;20376;-64
2024/03/19 03:08:00;;;;;;;0.13;0.13;;;;;;;;;;5105501;28;20016;-64
2024/03/19 03:10:25;;;;;;;0.45;0.45;;;;;;;;;;5096521;28;20065;-64
2024/03/19 03:12:51;;;;;;;0.30;0.30;;;;;;;;;;5096448;28;20447;-64
2024/03/19 03:15:16;;;;;;;0.10;0.10;;;;;;;;;;5096390;28;20256;-64
2024/03/19 03:17:41;;;;;;;0.50;0.50;;;;;;;;;;5096077;28;20016;-64
2024/03/19 03:20:06;;;;;;;1.00;0.40;;;;;;;;;;5096101;28;20384;-64
2024/03/19 03:22:38;;;;;;;0.10;0.10;;;;;;;;;;5096041;28;20036;-67
2024/03/19 03:25:08;;;;;;;0.03;0.03;;;;;;;;;;5095932;28;20039;-67
2024/03/19 03:27:33;;;;;;;0.00;0.00;;;;;;;;;;5096170;28;20032;-67
2024/03/19 03:29:58;;;;;;;0.10;0.10;;;;;;;;;;5095971;28;20015;-67
2024/03/19 03:32:24;;;;;;;0.30;0.30;;;;;;;;;;5096106;28;20463;-67
2024/03/19 03:34:49;;;;;;;0.10;0.10;;;;;;;;;;5114914;28;20050;-67
2024/03/19 03:37:14;;;;;;;0.03;0.03;;;;;;;;;;5115606;28;20031;-67
2024/03/19 03:39:40;;;;;;;0.10;0.10;;;;;;;;;;5111014;28;20015;-67
2024/03/19 03:42:05;;;;;;;0.00;0.00;;;;;;;;;;5096562;28;20020;-67
2024/03/19 03:44:30;;;;;;;0.07;0.07;;;;;;;;;;5095318;28;20285;-67
2024/03/19 03:46:55;;;;;;;2.33;0.70;;;;;;;;;;5112939;28;20335;-67
2024/03/19 03:49:21;;;;;;;0.83;0.80;;;;;;;;;;5115332;28;20020;-67
2024/03/19 03:51:46;;;;;;;0.10;0.10;;;;;;;;;;5115544;28;20486;-67
2024/03/19 03:54:11;;;;;;;0.30;0.30;;;;;;;;;;5115198;28;20746;-67
2024/03/19 03:56:36;;;;;;;0.73;0.47;;;;;;;;;;5115150;28;20050;-67
2024/03/19 03:59:02;;;;;;;0.63;0.47;;;;;;;;;;5113643;28;20020;-67
2024/03/19 04:01:28;;;;;;;0.03;0.03;;;;;;;;;;5114777;28;20035;-67
2024/03/19 04:03:53;;;;;;;0.20;0.20;;;;;;;;;;5115183;28;20027;-67
2024/03/19 04:06:19;;;;;;;0.30;0.30;;;;;;;;;;5106257;28;20096;-67
2024/03/19 04:08:44;;;;;;;0.00;0.00;;;;;;;;;;5094442;28;20646;-67
2024/03/19 04:11:09;;;;;;;0.07;0.07;;;;;;;;;;5109609;28;20047;-67
2024/03/19 04:13:35;;;;;;;0.43;0.43;;;;;;;;;;5114447;28;20725;-67
2024/03/19 04:16:00;;;;;;;0.10;0.10;;;;;;;;;;5113267;28;20024;-67
2024/03/19 04:18:26;;;;;;;0.10;0.10;;;;;;;;;;5114746;28;20031;-67
2024/03/19 04:20:51;;;;;;;1.07;0.80;;;;;;;;;;5114355;28;20325;-67
2024/03/19 04:23:23;;;;;;;0.70;0.50;;;;;;;;;;5114670;28;20051;-67
2024/03/19 04:25:48;;;;;;;0.10;0.10;;;;;;;;;;5114267;28;20479;-67
2024/03/19 04:28:13;;;;;;;0.10;0.10;;;;;;;;;;5086180;28;20016;-67
2024/03/19 04:30:39;;;;;;;0.07;0.07;;;;;;;;;;5100335;28;20016;-67
2024/03/19 04:33:04;;;;;;;0.10;0.10;;;;;;;;;;5113535;28;20259;-65
2024/03/19 04:35:29;;;;;;;0.87;0.40;;;;;;;;;;5081950;28;20031;-64
2024/03/19 04:37:54;;;;;;;0.10;0.10;;;;;;;;;;5081130;28;20299;-64
2024/03/19 04:40:21;;;;;;;0.95;0.43;;;;;;;;;;5094573;28;20261;-64
2024/03/19 04:42:46;;;;;;;0.00;0.00;;;;;;;;;;5076235;28;20036;-64
2024/03/19 04:45:11;;;;;;;0.32;0.32;;;;;;;;;;5094342;28;20043;-64
2024/03/19 04:47:37;;;;;;;0.10;0.10;;;;;;;;;;5094354;28;20473;-64
2024/03/19 04:50:02;;;;;;;0.40;0.40;;;;;;;;;;5094568;28;20076;-64
2024/03/19 04:52:27;;;;;;;0.10;0.10;;;;;;;;;;5095458;28;20522;-64
2024/03/19 04:54:52;;;;;;;0.90;0.50;;;;;;;;;;5094084;28;20036;-64
2024/03/19 04:57:19;;;;;;;0.35;0.35;;;;;;;;;;5094204;28;20339;-64
2024/03/19 04:59:45;;;;;;;0.15;0.15;;;;;;;;;;5094427;28;20390;-64
2024/03/19 05:02:10;;;;;;;0.32;0.32;;;;;;;;;;5094408;28;20123;-64
2024/03/19 05:04:35;;;;;;;0.00;0.00;;;;;;;;;;5094037;28;20027;-64
2024/03/19 05:07:01;;;;;;;2.15;1.77;;;;;;;;;;5094820;28;20012;-73
2024/03/19 05:09:26;;;;;;;1.43;0.73;;;;;;;;;;5114163;28;20091;-72
2024/03/19 05:11:51;;;;;;;0.77;0.67;;;;;;;;;;5114200;28;20348;-68
2024/03/19 05:14:16;;;;;;;0.20;0.20;;;;;;;;;;5095747;28;20275;-68
2024/03/19 05:16:42;;;;;;;0.20;0.20;;;;;;;;;;5093753;28;20380;-68
2024/03/19 05:19:07;;;;;;;0.10;0.10;;;;;;;;;;5093563;28;20029;-69
2024/03/19 05:21:32;;;;;;;0.00;0.00;;;;;;;;;;5093662;28;20057;-68
2024/03/19 05:23:58;;;;;;;0.32;0.28;;;;;;;;;;5093716;28;20060;-68
2024/03/19 05:26:23;;;;;;;0.35;0.35;;;;;;;;;;5093734;28;20016;-68
2024/03/19 05:28:48;;;;;;;3.10;0.57;;;;;;;;;;5093752;28;20024;-69
2024/03/19 05:31:21;;;;;;;0.07;0.07;;;;;;;;;;5093741;28;20331;-68
2024/03/19 05:33:46;;;;;;;1.08;0.10;;;;;;;;;;5093481;28;20241;-68
2024/03/19 05:36:11;;;;;;;0.10;0.10;;;;;;;;;;5093610;28;20027;-69
2024/03/19 05:38:37;;;;;;;0.43;0.43;;;;;;;;;;5093596;28;20490;-68
2024/03/19 05:41:02;;;;;;;0.20;0.20;;;;;;;;;;5093795;28;20143;-69
2024/03/19 05:43:27;;;;;;;0.20;0.20;;;;;;;;;;5093405;28;20040;-65
2024/03/19 05:45:55;;;;;;;0.20;0.20;;;;;;;;;;5093404;28;20074;-65
2024/03/19 05:48:20;;;;;;;0.68;0.65;;;;;;;;;;5093660;28;20035;-65
2024/03/19 05:50:46;;;;;;;0.08;0.08;;;;;;;;;;5093422;28;20020;-65
2024/03/19 05:53:11;;;;;;;5.13;0.60;;;;;;;;;;5093423;28;20051;-65
2024/03/19 05:55:36;;;;;;;0.67;0.67;;;;;;;;;;5093464;28;20016;-65
2024/03/19 05:58:02;;;;;;;0.50;0.50;;;;;;;;;;5093608;28;20020;-65
2024/03/19 06:00:28;;;;;;;0.47;0.30;;;;;;;;;;5093608;28;20050;-65
2024/03/19 06:02:53;;;;;;;0.13;0.13;;;;;;;;;;5093308;28;20024;-65
2024/03/19 06:05:18;;;;;;;0.00;0.00;;;;;;;;;;5093476;28;20051;-65
2024/03/19 06:07:43;;;;;;;0.87;0.70;;;;;;;;;;5093274;28;20012;-65
2024/03/19 06:10:09;;;;;;;1.13;1.00;;;;;;;;;;5093459;28;20016;-65
2024/03/19 06:12:35;;;;;;;0.30;0.30;;;;;;;;;;5093469;28;20016;-65
2024/03/19 06:15:00;;;;;;;0.65;0.65;;;;;;;;;;5093143;28;20099;-65
2024/03/19 06:17:26;;;;;;;1.02;0.88;;;;;;;;;;5093123;28;20031;-65
2024/03/19 06:19:52;;;;;;;0.20;0.20;;;;;;;;;;5093397;28;20052;-65
2024/03/19 06:22:17;;;;;;;1.25;0.68;;;;;;;;;;5093410;28;20071;-65
2024/03/19 06:24:42;;;;;;;0.00;0.00;;;;;;;;;;5093032;28;20364;-65
2024/03/19 06:27:07;;;;;;;0.73;0.23;;;;;;;;;;5093087;28;20245;-65
2024/03/19 06:29:33;;;;;;;0.23;0.23;;;;;;;;;;5093077;28;20125;-65
2024/03/19 06:31:58;;;;;;;1.92;0.98;;;;;;;;;;5095375;28;20275;-65
2024/03/19 06:34:23;;;;;;;0.75;0.75;;;;;;;;;;5096961;28;20487;-65
2024/03/19 06:36:51;;;;;;;0.10;0.10;;;;;;;;;;5097255;28;20054;-65
2024/03/19 06:39:17;;;;;;;0.93;0.43;;;;;;;;;;5096815;28;20286;-65
2024/03/19 06:41:42;;;;;;;0.13;0.13;;;;;;;;;;5096859;28;20123;-65
2024/03/19 06:44:08;;;;;;;0.20;0.20;;;;;;;;;;5096482;28;20105;-65
2024/03/19 06:46:33;;;;;;;0.45;0.45;;;;;;;;;;5096831;28;20240;-65
2024/03/19 06:48:58;;;;;;;0.30;0.30;;;;;;;;;;5096722;28;20020;-65
2024/03/19 06:51:23;;;;;;;0.50;0.50;;;;;;;;;;5096798;28;20327;-65
2024/03/19 06:53:48;;;;;;;0.60;0.60;;;;;;;;;;5096822;28;20382;-68
2024/03/19 06:56:14;;;;;;;0.00;0.00;;;;;;;;;;5096907;28;20012;-69
2024/03/19 06:58:39;;;;;;;0.53;0.53;;;;;;;;;;5096633;28;20696;-68
2024/03/19 07:01:04;;;;;;;1.40;0.95;;;;;;;;;;5096469;28;20740;-68
2024/03/19 07:03:29;;;;;;;0.22;0.22;;;;;;;;;;5096354;28;20030;-68
2024/03/19 07:05:56;;;;;;;1.83;1.40;;;;;;;;;;5096382;28;20028;-68
2024/03/19 07:08:21;;;;;;;0.20;0.20;;;;;;;;;;5096628;28;20042;-68
2024/03/19 07:10:47;;;;;;;0.30;0.30;;;;;;;;;;5096383;28;20012;-68
2024/03/19 07:13:12;;;;;;;0.68;0.50;;;;;;;;;;5096522;28;20418;-68
2024/03/19 07:15:38;;;;;;;0.65;0.50;;;;;;;;;;5096224;28;20027;-69
2024/03/19 07:18:04;;;;;;;0.85;0.55;;;;;;;;;;5096128;28;20019;-69
2024/03/19 07:20:31;;;;;;;0.52;0.50;;;;;;;;;;5096150;28;20020;-68
2024/03/19 07:22:57;;;;;;;0.60;0.60;;;;;;;;;;5096050;28;20048;-69
2024/03/19 07:25:22;;;;;;;0.35;0.35;;;;;;;;;;5095930;28;20070;-69
2024/03/19 07:27:48;;;;;;;1.65;1.13;;;;;;;;;;5095971;28;20103;-69
2024/03/19 07:30:14;;;;;;;0.28;0.28;;;;;;;;;;5096219;28;20028;-69
2024/03/19 07:32:39;;;;;;;0.00;0.00;;;;;;;;;;5095860;28;20020;-68
2024/03/19 07:35:05;;;;;;;0.63;0.63;;;;;;;;;;5096125;28;20043;-69
2024/03/19 07:37:31;;;;;;;0.43;0.43;;;;;;;;;;5095884;28;20020;-69
2024/03/19 07:39:57;;;;;;;0.57;0.52;;;;;;;;;;5096056;28;20063;-69
2024/03/19 07:42:22;;;;;;;0.55;0.55;;;;;;;;;;5095193;28;20483;-69
2024/03/19 07:44:47;;;;;;;0.55;0.55;;;;;;;;;;5094840;28;20123;-69
2024/03/19 07:47:12;;;;;;;0.83;0.60;;;;;;;;;;5095647;28;20103;-69
2024/03/19 07:49:38;;;;;;;0.60;0.60;;;;;;;;;;5095650;28;20020;-68
2024/03/19 07:52:04;;;;;;;0.47;0.47;;;;;;;;;;5095750;28;20391;-69
2024/03/19 07:54:30;;;;;;;0.35;0.35;;;;;;;;;;5095388;28;20027;-69
2024/03/19 07:56:55;;;;;;;0.20;0.20;;;;;;;;;;5095353;28;20115;-69
2024/03/19 07:59:20;;;;;;;0.90;0.73;;;;;;;;;;5095403;28;20055;-69
2024/03/19 08:01:48;;;;;;;0.10;0.10;;;;;;;;;;5095470;28;20259;-66
2024/03/19 08:04:13;;;;;;;0.40;0.30;;;;;;;;;;5095150;28;20347;-65
2024/03/19 08:06:39;;;;;;;0.30;0.30;;;;;;;;;;5095478;28;20051;-65
2024/03/19 08:09:04;;;;;;;0.20;0.20;;;;;;;;;;5095261;28;20414;-65
2024/03/19 08:11:30;;;;;;;0.37;0.37;;;;;;;;;;5095399;28;20069;-65
2024/03/19 08:13:55;;;;;;;1.75;0.32;;;;;;;;;;5095080;28;20270;-65
2024/03/19 08:16:21;;;;;;;0.15;0.15;;;;;;;;;;5095065;28;20077;-65
2024/03/19 08:18:48;;;;;;;0.10;0.10;;;;;;;;;;5095253;28;20020;-65
2024/03/19 08:21:13;;;;;;;0.43;0.43;;;;;;;;;;5095236;28;20020;-65
2024/03/19 08:23:40;;;;;;;0.13;0.13;;;;;;;;;;5095164;28;20031;-65
2024/03/19 08:26:05;;;;;;;0.52;0.52;;;;;;;;;;5095072;28;20101;-65
2024/03/19 08:28:31;;;;;;;1.03;0.93;;;;;;;;;;5094900;28;20016;-65
2024/03/19 08:30:56;;;;;;;0.35;0.35;;;;;;;;;;5094845;28;20241;-65
2024/03/19 08:33:22;;;;;;;0.52;0.52;;;;;;;;;;5094619;28;20020;-66
2024/03/19 08:35:49;;;;;;;0.75;0.60;;;;;;;;;;5094728;28;20022;-65
2024/03/19 08:38:14;;;;;;;0.25;0.25;;;;;;;;;;5094882;28;20468;-65
2024/03/19 08:40:39;;;;;;;0.63;0.63;;;;;;;;;;5094638;28;20103;-65
2024/03/19 08:43:04;;;;;;;1.33;1.23;;;;;;;;;;5094311;28;20284;-66
2024/03/19 08:45:29;;;;;;;0.27;0.27;;;;;;;;;;5094719;28;20269;-66
2024/03/19 08:47:55;;;;;;;1.00;0.90;;;;;;;;;;5094562;28;20252;-65
2024/03/19 08:50:20;;;;;;;0.83;0.83;;;;;;;;;;5094434;28;20016;-65
2024/03/19 08:52:45;;;;;;;1.37;0.83;;;;;;;;;;5094403;28;20016;-65
2024/03/19 08:55:12;;;;;;;2.00;1.70;;;;;;;;;;5093962;28;20260;-66
2024/03/19 08:57:38;;;;;;;0.40;0.40;;;;;;;;;;5094519;28;20031;-65
2024/03/19 09:00:10;;;;;;;1.38;1.20;;;;;;;;;;5094249;28;20472;-66
2024/03/19 09:02:35;;;;;;;2.47;1.63;;;;;;;;;;5094200;28;20541;-66
2024/03/19 09:05:00;;;;;;;0.77;0.77;;;;;;;;;;5094331;28;20088;-65
2024/03/19 09:07:26;;;;;;;0.77;0.70;;;;;;;;;;5094166;28;20332;-65
2024/03/19 09:09:52;;;;;;;2.15;1.52;;;;;;;;;;5094297;28;20020;-66
2024/03/19 09:12:17;;;;;;;1.02;0.47;;;;;;;;;;5094106;28;20016;-69
2024/03/19 09:14:42;;;;;;;1.43;1.00;;;;;;;;;;5094005;28;20035;-69
2024/03/19 09:17:09;;;;;;;1.40;1.17;;;;;;;;;;5094214;28;20031;-69
2024/03/19 09:19:40;;;;;;;2.08;0.68;;;;;;;;;;5093912;28;20024;-69
2024/03/19 09:22:06;;;;;;;1.08;1.00;;;;;;;;;;5094072;28;20500;-69
2024/03/19 09:24:31;;;;;;;1.33;1.03;;;;;;;;;;5093759;28;20020;-69
2024/03/19 09:26:56;;;;;;;1.15;0.55;;;;;;;;;;5093792;28;20260;-69
2024/03/19 09:29:21;;;;;;;1.90;1.23;;;;;;;;;;5093735;28;20016;-69
2024/03/19 09:31:47;;;;;;;1.53;0.63;;;;;;;;;;5093704;28;20333;-69
2024/03/19 09:34:12;;;;;;;0.57;0.57;;;;;;;;;;5093821;28;20265;-69
2024/03/19 09:36:38;;;;;;;6.88;1.25;;;;;;;;;;5093574;28;20023;-69
2024/03/19 09:39:10;;;;;;;1.20;0.95;;;;;;;;;;5093859;28;20023;-70
2024/03/19 09:41:35;;;;;;;1.30;1.20;;;;;;;;;;5093836;28;20072;-70
2024/03/19 09:44:01;;;;;;;0.90;0.90;;;;;;;;;;5093221;28;20505;-70
2024/03/19 09:46:26;;;;;;;0.95;0.70;;;;;;;;;;5093551;28;20019;-70
2024/03/19 09:48:52;;;;;;;1.70;1.30;;;;;;;;;;5093738;28;20372;-70
2024/03/19 09:51:21;;;;;;;2.08;1.30;;;;;;;;;;5093730;28;20020;-70
2024/03/19 09:53:46;;;;;;;0.57;0.57;;;;;;;;;;5093309;28;20099;-70
2024/03/19 09:56:15;;;;;;;2.22;1.83;;;;;;;;;;5093378;28;20111;-70
2024/03/19 09:58:41;;;;;;;1.02;0.93;;;;;;;;;;5093601;28;20020;-70
2024/03/19 10:01:06;;;;;;;3.20;1.27;;;;;;;;;;5093291;28;20018;-69
2024/03/19 10:03:31;;;;;;;1.00;0.95;;;;;;;;;;5093332;28;20032;-69
2024/03/19 10:05:57;;;;;;;1.70;1.47;;;;;;;;;;5093685;28;20035;-69
2024/03/19 10:08:22;;;;;;;1.92;1.25;;;;;;;;;;5097781;28;20020;-69
2024/03/19 10:10:47;;;;;;;2.30;1.23;;;;;;;;;;5097488;28;20103;-69
2024/03/19 10:13:13;;;;;;;1.13;1.02;;;;;;;;;;5097394;28;20024;-69
2024/03/19 10:15:38;;;;;;;2.05;1.77;;;;;;;;;;5097621;28;20016;-69
2024/03/19 10:18:05;;;;;;;1.15;0.88;;;;;;;;;;5097610;28;20545;-69
2024/03/19 10:20:32;;;;;;;1.65;1.25;;;;;;;;;;5097245;28;20020;-69
2024/03/19 10:22:57;;;;;;;1.48;0.98;;;;;;;;;;5097456;28;20019;-66
2024/03/19 10:25:23;;;;;;;2.75;1.33;;;;;;;;;;5097159;28;20024;-66
2024/03/19 10:27:49;;;;;;;1.80;1.35;;;;;;;;;;5097432;28;20372;-66
2024/03/19 10:30:15;;;;;;;5.55;1.48;;;;;;;;;;5097096;28;20476;-66
2024/03/19 10:32:41;;;;;;;2.50;1.55;;;;;;;;;;5097001;28;20472;-66
2024/03/19 10:35:17;;;;;;;4.47;2.17;;;;;;;;;;5097323;28;20020;-65
2024/03/19 10:37:43;;;;;;;1.55;1.10;;;;;;;;;;5096948;28;20020;-65
2024/03/19 10:40:12;;;;;;;1.55;0.85;;;;;;;;;;5096996;28;20024;-66
2024/03/19 10:42:37;;;;;;;0.93;0.80;;;;;;;;;;5096913;28;20028;-66
2024/03/19 10:45:03;;;;;;;1.40;1.08;;;;;;;;;;5096493;28;20060;-66
2024/03/19 10:47:29;;;;;;;0.68;0.68;;;;;;;;;;5097079;28;20095;-66
2024/03/19 10:49:54;;;;;;;1.92;0.80;;;;;;;;;;5097012;28;20464;-66
2024/03/19 10:52:21;;;;;;;0.67;0.67;;;;;;;;;;5096736;28;20436;-65
2024/03/19 10:54:47;;;;;;;1.40;1.05;;;;;;;;;;5096673;28;20016;-65
2024/03/19 10:57:17;;;;;;;1.38;1.25;;;;;;;;;;5096630;28;20379;-65
2024/03/19 10:59:42;;;;;;;0.85;0.80;;;;;;;;;;5096574;28;20059;-66
2024/03/19 11:02:07;;;;;;;1.75;0.93;;;;;;;;;;5096471;28;20089;-65
2024/03/19 11:04:33;;;;;;;2.33;1.02;;;;;;;;;;5096443;28;20028;-65
2024/03/19 11:06:59;;;;;;;0.68;0.63;;;;;;;;;;5096400;28;20012;-65
2024/03/19 11:09:25;;;;;;;1.00;0.98;;;;;;;;;;5096458;28;20069;-65
2024/03/19 11:11:50;;;;;;;1.17;0.55;;;;;;;;;;5096336;28;20061;-65
2024/03/19 11:14:20;;;;;;;0.57;0.55;;;;;;;;;;5096551;28;20023;-65
2024/03/19 11:16:45;;;;;;;0.60;0.60;;;;;;;;;;5095976;28;20030;-66
2024/03/19 11:19:18;;;;;;;0.63;0.63;;;;;;;;;;5096204;28;20098;-66
2024/03/19 11:21:47;;;;;;;0.30;0.30;;;;;;;;;;5096074;28;20111;-65
2024/03/19 11:24:29;;;;;;;1.00;0.50;;;;;;;;;;5096031;28;20023;-66
2024/03/19 11:26:56;;;;;;;0.35;0.35;;;;;;;;;;5096320;28;20526;-65
2024/03/19 11:29:23;;;;;;;0.40;0.40;;;;;;;;;;5096012;28;20032;-66
2024/03/19 11:31:49;;;;;;;1.00;0.57;;;;;;;;;;5096081;28;20012;-68
2024/03/19 11:34:15;;;;;;;0.85;0.60;;;;;;;;;;5096061;28;20389;-68
2024/03/19 11:36:50;;;;;;;0.38;0.38;;;;;;;;;;5095788;28;20080;-68
2024/03/19 11:39:18;;;;;;;0.75;0.63;;;;;;;;;;5096098;28;20016;-69
2024/03/19 11:41:43;;;;;;;1.13;0.65;;;;;;;;;;5095765;28;20028;-69
2024/03/19 11:44:19;;;;;;;0.20;0.20;;;;;;;;;;5095474;28;20155;-68
2024/03/19 11:46:45;;;;;;;0.10;0.10;;;;;;;;;;5095924;28;20020;-68
2024/03/19 11:49:23;;;;;;;1.85;1.05;;;;;;;;;;5095615;28;20016;-69
2024/03/19 11:51:56;;;;;;;0.17;0.17;;;;;;;;;;5095808;28;20472;-68
2024/03/19 11:54:21;;;;;;;5.47;0.55;;;;;;;;;;5095780;28;20488;-68
2024/03/19 11:56:48;;;;;;;2.03;0.47;;;;;;;;;;5095509;28;20039;-68
2024/03/19 11:59:13;;;;;;;1.90;0.70;;;;;;;;;;5095640;28;20739;-68
2024/03/19 12:01:38;;;;;;;0.50;0.45;;;;;;;;;;5095419;28;20020;-69
2024/03/19 12:04:04;;;;;;;0.28;0.28;;;;;;;;;;5095266;28;20020;-69
2024/03/19 12:06:30;;;;;;;0.10;0.10;;;;;;;;;;5095336;28;20024;-69
2024/03/19 12:08:56;;;;;;;0.10;0.10;;;;;;;;;;5095525;28;20023;-68
2024/03/19 12:11:21;;;;;;;1.25;0.73;;;;;;;;;;5095244;28;20020;-68
2024/03/19 12:13:46;;;;;;;0.30;0.20;;;;;;;;;;5095179;28;20085;-68
2024/03/19 12:16:11;;;;;;;0.00;0.00;;;;;;;;;;5095155;28;20016;-68
2024/03/19 12:18:37;;;;;;;0.65;0.32;;;;;;;;;;5095272;28;20288;-68
2024/03/19 12:21:02;;;;;;;0.37;0.37;;;;;;;;;;5095263;28;20024;-68
2024/03/19 12:23:27;;;;;;;0.43;0.32;;;;;;;;;;5095065;28;20241;-68
2024/03/19 12:25:53;;;;;;;2.03;0.65;;;;;;;;;;5095087;28;20099;-68
2024/03/19 12:28:18;;;;;;;0.17;0.17;;;;;;;;;;5094663;28;20020;-68
2024/03/19 12:30:44;;;;;;;0.13;0.13;;;;;;;;;;5094306;28;20020;-68
2024/03/19 12:33:19;;;;;;;0.45;0.40;;;;;;;;;;5094962;28;20731;-68
2024/03/19 12:35:46;;;;;;;1.33;1.23;;;;;;;;;;5094993;28;20097;-68
2024/03/19 12:38:13;;;;;;;0.73;0.47;;;;;;;;;;5094656;28;20020;-69
2024/03/19 12:40:39;;;;;;;0.22;0.22;;;;;;;;;;5094933;28;20027;-68
2024/03/19 12:43:05;;;;;;;4.03;1.08;;;;;;;;;;5094815;28;20104;-69
2024/03/19 12:45:31;;;;;;;0.57;0.52;;;;;;;;;;5094281;28;20491;-68
2024/03/19 12:47:56;;;;;;;1.10;0.82;;;;;;;;;;5094784;28;20048;-68
2024/03/19 12:50:21;;;;;;;0.73;0.60;;;;;;;;;;5094707;28;20008;-68
2024/03/19 12:52:46;;;;;;;2.03;0.67;;;;;;;;;;5094393;28;20069;-68
2024/03/19 12:55:18;;;;;;;0.30;0.30;;;;;;;;;;5094322;28;20335;-68
2024/03/19 12:57:43;;;;;;;0.70;0.70;;;;;;;;;;5094284;28;20112;-68
2024/03/19 13:00:10;;;;;;;0.98;0.52;;;;;;;;;;5094503;28;20063;-68
2024/03/19 13:02:36;;;;;;;0.13;0.13;;;;;;;;;;5094161;28;20077;-68
2024/03/19 13:05:02;;;;;;;0.28;0.28;;;;;;;;;;5094323;28;20028;-68
2024/03/19 13:07:27;;;;;;;0.28;0.20;;;;;;;;;;5094385;28;20095;-68
2024/03/19 13:09:52;;;;;;;0.80;0.60;;;;;;;;;;5094129;28;20528;-68
2024/03/19 13:12:17;;;;;;;0.30;0.30;;;;;;;;;;5094058;28;20267;-69
2024/03/19 13:14:43;;;;;;;0.50;0.43;;;;;;;;;;5094027;28;20028;-69
2024/03/19 13:17:09;;;;;;;0.40;0.40;;;;;;;;;;5094001;28;20027;-68
2024/03/19 13:19:34;;;;;;;1.00;0.40;;;;;;;;;;5093877;28;20077;-68
2024/03/19 13:22:00;;;;;;;0.13;0.13;;;;;;;;;;5093949;28;20027;-68
2024/03/19 13:24:25;;;;;;;0.20;0.20;;;;;;;;;;5093877;28;20085;-68
2024/03/19 13:26:50;;;;;;;0.10;0.10;;;;;;;;;;5093851;28;20095;-68
2024/03/19 13:29:15;;;;;;;0.43;0.30;;;;;;;;;;5093818;28;20020;-68
2024/03/19 13:31:41;;;;;;;0.52;0.40;;;;;;;;;;5093701;28;20533;-68
2024/03/19 13:34:06;;;;;;;0.20;0.20;;;;;;;;;;5093912;28;20054;-68
2024/03/19 13:36:31;;;;;;;0.00;0.00;;;;;;;;;;5093904;28;20245;-68
2024/03/19 13:38:56;;;;;;;0.67;0.40;;;;;;;;;;5093704;28;20248;-68
2024/03/19 13:41:21;;;;;;;0.30;0.30;;;;;;;;;;5093559;28;20020;-68
2024/03/19 13:43:47;;;;;;;0.00;0.00;;;;;;;;;;5093250;28;20040;-68
2024/03/19 13:46:15;;;;;;;0.85;0.43;;;;;;;;;;5093483;28;20024;-68
2024/03/19 13:48:40;;;;;;;0.10;0.10;;;;;;;;;;5093503;28;20065;-68
2024/03/19 13:51:06;;;;;;;0.40;0.40;;;;;;;;;;5093507;28;20492;-69
2024/03/19 13:53:31;;;;;;;1.75;0.35;;;;;;;;;;5093615;28;20028;-68
2024/03/19 13:55:57;;;;;;;0.10;0.10;;;;;;;;;;5093486;28;20038;-68
2024/03/19 13:58:22;;;;;;;0.10;0.10;;;;;;;;;;5093626;28;20020;-68
2024/03/19 14:00:48;;;;;;;0.00;0.00;;;;;;;;;;5093617;28;20493;-68
2024/03/19 14:03:19;;;;;;;0.40;0.20;;;;;;;;;;5093589;28;20020;-68
2024/03/19 14:05:45;;;;;;;0.10;0.10;;;;;;;;;;5093274;28;20276;-68
2024/03/19 14:08:10;;;;;;;0.10;0.10;;;;;;;;;;5093264;28;20349;-68
2024/03/19 14:10:37;;;;;;;0.98;0.20;;;;;;;;;;5093500;28;20029;-68
2024/03/19 14:13:02;;;;;;;0.38;0.38;;;;;;;;;;5093497;28;20020;-68
2024/03/19 14:15:28;;;;;;;0.40;0.32;;;;;;;;;;5093389;28;20034;-68
2024/03/19 14:17:53;;;;;;;0.33;0.33;;;;;;;;;;5093248;28;20020;-68
2024/03/19 14:20:19;;;;;;;0.20;0.20;;;;;;;;;;5093246;28;20031;-68
2024/03/19 14:22:44;;;;;;;0.35;0.35;;;;;;;;;;5093448;28;20016;-68
2024/03/19 14:25:10;;;;;;;0.52;0.40;;;;;;;;;;5093028;28;20031;-68
2024/03/19 14:27:35;;;;;;;0.10;0.10;;;;;;;;;;5093404;28;20069;-68
2024/03/19 14:30:00;;;;;;;0.33;0.30;;;;;;;;;;5093179;28;20019;-68
2024/03/19 14:32:25;;;;;;;0.27;0.17;;;;;;;;;;5093115;28;20016;-68
2024/03/19 14:34:51;;;;;;;0.00;0.00;;;;;;;;;;5093334;28;20028;-68